sensor_id;sensor_type;location;lat;lon;timestamp;temperature;humidity
25332;DHT22;13284;52.748;13.452;2023-07-24T00:02:13;18.60;99.90
25332;DHT22;13284;52.748;13.452;2023-07-24T00:04:39;18.60;99.90
25332;DHT22;13284;52.748;13.452;2023-07-24T00:07:05;18.60;99.90
25332;DHT22;13284;52.748;13.452;2023-07-24T00:09:31;18.60;99.90
25332;DHT22;13284;52.748;13.452;2023-07-24T00:11:56;18.60;99.90
25332;DHT22;13284;52.748;13.452;2023-07-24T00:14:22;18.70;99.90
25332;DHT22;13284;52.748;13.452;2023-07-24T00:16:48;18.60;99.90
25332;DHT22;13284;52.748;13.452;2023-07-24T00:19:13;18.60;99.90
25332;DHT22;13284;52.748;13.452;2023-07-24T00:21:39;18.60;99.90
25332;DHT22;13284;52.748;13.452;2023-07-24T00:24:04;18.60;99.90
25332;DHT22;13284;52.748;13.452;2023-07-24T00:26:30;18.60;99.90
25332;DHT22;13284;52.748;13.452;2023-07-24T00:28:55;18.50;99.90
25332;DHT22;13284;52.748;13.452;2023-07-24T00:31:21;18.60;99.90
25332;DHT22;13284;52.748;13.452;2023-07-24T00:33:47;18.60;99.90
25332;DHT22;13284;52.748;13.452;2023-07-24T00:36:12;18.60;99.90
25332;DHT22;13284;52.748;13.452;2023-07-24T00:38:37;18.60;99.90
25332;DHT22;13284;52.748;13.452;2023-07-24T00:41:03;18.60;99.90
25332;DHT22;13284;52.748;13.452;2023-07-24T00:43:28;18.60;99.90
25332;DHT22;13284;52.748;13.452;2023-07-24T00:45:54;18.60;99.90
25332;DHT22;13284;52.748;13.452;2023-07-24T00:48:21;18.70;99.90
25332;DHT22;13284;52.748;13.452;2023-07-24T00:50:47;18.60;99.90
25332;DHT22;13284;52.748;13.452;2023-07-24T00:53:13;18.60;99.90
25332;DHT22;13284;52.748;13.452;2023-07-24T00:55:40;18.60;99.90
25332;DHT22;13284;52.748;13.452;2023-07-24T00:58:11;18.60;99.90
25332;DHT22;13284;52.748;13.452;2023-07-24T01:00:38;18.60;99.90
25332;DHT22;13284;52.748;13.452;2023-07-24T01:03:04;18.70;99.90
25332;DHT22;13284;52.748;13.452;2023-07-24T01:05:30;18.70;99.90
25332;DHT22;13284;52.748;13.452;2023-07-24T01:07:55;18.70;99.90
25332;DHT22;13284;52.748;13.452;2023-07-24T01:10:21;18.80;99.90
25332;DHT22;13284;52.748;13.452;2023-07-24T01:18:49;18.80;99.90
25332;DHT22;13284;52.748;13.452;2023-07-24T01:21:20;18.80;99.90
25332;DHT22;13284;52.748;13.452;2023-07-24T01:23:55;18.90;99.90
25332;DHT22;13284;52.748;13.452;2023-07-24T01:26:21;18.90;99.90
25332;DHT22;13284;52.748;13.452;2023-07-24T01:28:49;18.90;99.90
25332;DHT22;13284;52.748;13.452;2023-07-24T01:31:16;18.90;99.90
25332;DHT22;13284;52.748;13.452;2023-07-24T01:33:43;18.90;99.90
25332;DHT22;13284;52.748;13.452;2023-07-24T01:36:08;18.90;99.90
25332;DHT22;13284;52.748;13.452;2023-07-24T01:38:35;18.90;99.90
25332;DHT22;13284;52.748;13.452;2023-07-24T01:41:01;18.90;99.90
25332;DHT22;13284;52.748;13.452;2023-07-24T01:43:28;18.90;99.90
25332;DHT22;13284;52.748;13.452;2023-07-24T01:45:54;18.90;99.90
25332;DHT22;13284;52.748;13.452;2023-07-24T01:48:20;18.90;99.90
25332;DHT22;13284;52.748;13.452;2023-07-24T01:50:45;18.90;99.90
25332;DHT22;13284;52.748;13.452;2023-07-24T01:53:11;18.80;99.90
25332;DHT22;13284;52.748;13.452;2023-07-24T01:55:38;18.80;99.90
25332;DHT22;13284;52.748;13.452;2023-07-24T01:58:04;18.90;99.90
25332;DHT22;13284;52.748;13.452;2023-07-24T02:00:30;18.80;99.90
25332;DHT22;13284;52.748;13.452;2023-07-24T02:02:55;18.90;99.90
25332;DHT22;13284;52.748;13.452;2023-07-24T02:05:21;19.00;99.90
25332;DHT22;13284;52.748;13.452;2023-07-24T02:07:47;18.90;99.90
25332;DHT22;13284;52.748;13.452;2023-07-24T02:10:12;18.90;99.90
25332;DHT22;13284;52.748;13.452;2023-07-24T02:12:45;18.90;99.90
25332;DHT22;13284;52.748;13.452;2023-07-24T02:15:11;19.00;99.90
25332;DHT22;13284;52.748;13.452;2023-07-24T02:17:36;18.90;99.90
25332;DHT22;13284;52.748;13.452;2023-07-24T02:20:02;18.90;99.90
25332;DHT22;13284;52.748;13.452;2023-07-24T02:22:28;18.90;99.90
25332;DHT22;13284;52.748;13.452;2023-07-24T02:24:53;18.90;99.90
25332;DHT22;13284;52.748;13.452;2023-07-24T02:27:30;18.90;99.90
25332;DHT22;13284;52.748;13.452;2023-07-24T02:30:00;18.90;99.90
25332;DHT22;13284;52.748;13.452;2023-07-24T02:32:28;18.80;99.90
25332;DHT22;13284;52.748;13.452;2023-07-24T02:34:53;18.70;99.90
25332;DHT22;13284;52.748;13.452;2023-07-24T02:37:19;18.70;99.90
25332;DHT22;13284;52.748;13.452;2023-07-24T02:39:45;18.70;99.90
25332;DHT22;13284;52.748;13.452;2023-07-24T02:42:11;18.60;99.90
25332;DHT22;13284;52.748;13.452;2023-07-24T02:44:37;18.60;99.90
25332;DHT22;13284;52.748;13.452;2023-07-24T02:47:03;18.70;99.90
25332;DHT22;13284;52.748;13.452;2023-07-24T02:49:29;18.80;99.90
25332;DHT22;13284;52.748;13.452;2023-07-24T02:51:55;18.70;99.90
25332;DHT22;13284;52.748;13.452;2023-07-24T02:54:20;18.70;99.90
25332;DHT22;13284;52.748;13.452;2023-07-24T02:56:49;18.90;99.90
25332;DHT22;13284;52.748;13.452;2023-07-24T02:59:14;18.80;99.90
25332;DHT22;13284;52.748;13.452;2023-07-24T03:01:40;18.90;99.90
25332;DHT22;13284;52.748;13.452;2023-07-24T03:04:05;19.00;99.90
25332;DHT22;13284;52.748;13.452;2023-07-24T03:06:31;18.90;99.90
25332;DHT22;13284;52.748;13.452;2023-07-24T03:08:57;18.90;99.90
25332;DHT22;13284;52.748;13.452;2023-07-24T03:11:22;19.00;99.90
25332;DHT22;13284;52.748;13.452;2023-07-24T03:13:48;19.00;99.90
25332;DHT22;13284;52.748;13.452;2023-07-24T03:16:13;19.00;99.90
25332;DHT22;13284;52.748;13.452;2023-07-24T03:18:39;19.00;99.90
25332;DHT22;13284;52.748;13.452;2023-07-24T03:21:04;19.10;99.90
25332;DHT22;13284;52.748;13.452;2023-07-24T03:23:30;19.10;99.90
25332;DHT22;13284;52.748;13.452;2023-07-24T03:25:56;19.10;99.90
25332;DHT22;13284;52.748;13.452;2023-07-24T03:28:21;19.10;99.90
25332;DHT22;13284;52.748;13.452;2023-07-24T03:30:47;19.10;99.90
25332;DHT22;13284;52.748;13.452;2023-07-24T03:33:12;19.00;99.90
25332;DHT22;13284;52.748;13.452;2023-07-24T03:35:38;18.90;99.90
25332;DHT22;13284;52.748;13.452;2023-07-24T03:38:04;18.90;99.90
25332;DHT22;13284;52.748;13.452;2023-07-24T03:40:30;18.80;99.90
25332;DHT22;13284;52.748;13.452;2023-07-24T03:42:55;18.70;99.90
25332;DHT22;13284;52.748;13.452;2023-07-24T03:45:21;18.70;99.90
25332;DHT22;13284;52.748;13.452;2023-07-24T03:47:47;18.70;99.90
25332;DHT22;13284;52.748;13.452;2023-07-24T03:50:12;18.70;99.90
25332;DHT22;13284;52.748;13.452;2023-07-24T03:52:38;18.70;99.90
25332;DHT22;13284;52.748;13.452;2023-07-24T03:55:09;18.60;99.90
25332;DHT22;13284;52.748;13.452;2023-07-24T03:57:35;18.60;99.90
25332;DHT22;13284;52.748;13.452;2023-07-24T04:00:02;18.40;99.90
25332;DHT22;13284;52.748;13.452;2023-07-24T04:02:27;18.30;99.90
25332;DHT22;13284;52.748;13.452;2023-07-24T04:04:55;18.30;99.90
25332;DHT22;13284;52.748;13.452;2023-07-24T04:07:32;18.20;99.90
25332;DHT22;13284;52.748;13.452;2023-07-24T04:09:57;18.20;99.90
25332;DHT22;13284;52.748;13.452;2023-07-24T04:12:23;18.10;99.90
25332;DHT22;13284;52.748;13.452;2023-07-24T04:14:48;18.20;99.90
25332;DHT22;13284;52.748;13.452;2023-07-24T04:17:15;18.30;99.90
25332;DHT22;13284;52.748;13.452;2023-07-24T04:19:41;18.20;99.90
25332;DHT22;13284;52.748;13.452;2023-07-24T04:22:07;18.20;99.90
25332;DHT22;13284;52.748;13.452;2023-07-24T04:24:32;18.10;99.90
25332;DHT22;13284;52.748;13.452;2023-07-24T04:26:58;18.10;99.90
25332;DHT22;13284;52.748;13.452;2023-07-24T04:29:36;18.00;99.90
25332;DHT22;13284;52.748;13.452;2023-07-24T04:32:01;17.90;99.90
25332;DHT22;13284;52.748;13.452;2023-07-24T04:34:27;17.80;99.90
25332;DHT22;13284;52.748;13.452;2023-07-24T04:37:03;17.80;99.90
25332;DHT22;13284;52.748;13.452;2023-07-24T04:39:28;17.70;99.90
25332;DHT22;13284;52.748;13.452;2023-07-24T04:41:54;17.70;99.90
25332;DHT22;13284;52.748;13.452;2023-07-24T04:44:20;17.80;99.90
25332;DHT22;13284;52.748;13.452;2023-07-24T04:46:45;17.70;99.90
25332;DHT22;13284;52.748;13.452;2023-07-24T04:49:11;17.70;99.90
25332;DHT22;13284;52.748;13.452;2023-07-24T04:51:36;17.80;99.90
25332;DHT22;13284;52.748;13.452;2023-07-24T04:54:02;17.80;99.90
25332;DHT22;13284;52.748;13.452;2023-07-24T04:56:28;17.80;99.90
25332;DHT22;13284;52.748;13.452;2023-07-24T04:58:53;17.90;99.90
25332;DHT22;13284;52.748;13.452;2023-07-24T05:01:19;17.80;99.90
25332;DHT22;13284;52.748;13.452;2023-07-24T05:03:53;17.80;99.90
25332;DHT22;13284;52.748;13.452;2023-07-24T05:06:18;17.80;99.90
25332;DHT22;13284;52.748;13.452;2023-07-24T05:08:44;17.90;99.90
25332;DHT22;13284;52.748;13.452;2023-07-24T05:11:09;17.90;99.90
25332;DHT22;13284;52.748;13.452;2023-07-24T05:13:37;17.90;99.90
25332;DHT22;13284;52.748;13.452;2023-07-24T05:16:03;18.00;99.90
25332;DHT22;13284;52.748;13.452;2023-07-24T05:18:29;18.00;99.90
25332;DHT22;13284;52.748;13.452;2023-07-24T05:20:54;18.10;99.90
25332;DHT22;13284;52.748;13.452;2023-07-24T05:23:20;18.40;99.90
25332;DHT22;13284;52.748;13.452;2023-07-24T05:25:46;18.40;99.90
25332;DHT22;13284;52.748;13.452;2023-07-24T05:28:12;18.50;99.90
25332;DHT22;13284;52.748;13.452;2023-07-24T05:30:37;18.70;99.90
25332;DHT22;13284;52.748;13.452;2023-07-24T05:33:04;18.90;99.90
25332;DHT22;13284;52.748;13.452;2023-07-24T05:35:29;19.10;99.90
25332;DHT22;13284;52.748;13.452;2023-07-24T05:38:02;19.20;99.90
25332;DHT22;13284;52.748;13.452;2023-07-24T05:40:29;19.30;99.90
25332;DHT22;13284;52.748;13.452;2023-07-24T05:42:54;19.30;99.90
25332;DHT22;13284;52.748;13.452;2023-07-24T05:45:20;19.50;99.90
25332;DHT22;13284;52.748;13.452;2023-07-24T05:47:47;19.60;99.90
25332;DHT22;13284;52.748;13.452;2023-07-24T05:50:12;19.70;99.90
25332;DHT22;13284;52.748;13.452;2023-07-24T05:52:39;19.90;99.90
25332;DHT22;13284;52.748;13.452;2023-07-24T05:55:05;19.90;99.90
25332;DHT22;13284;52.748;13.452;2023-07-24T05:57:30;19.80;99.90
25332;DHT22;13284;52.748;13.452;2023-07-24T05:59:56;19.90;99.90
25332;DHT22;13284;52.748;13.452;2023-07-24T06:02:23;20.10;99.90
25332;DHT22;13284;52.748;13.452;2023-07-24T06:04:48;20.20;99.90
25332;DHT22;13284;52.748;13.452;2023-07-24T06:07:14;20.30;99.90
25332;DHT22;13284;52.748;13.452;2023-07-24T06:09:39;20.50;99.90
25332;DHT22;13284;52.748;13.452;2023-07-24T06:12:05;20.70;99.90
25332;DHT22;13284;52.748;13.452;2023-07-24T06:14:30;20.80;99.90
25332;DHT22;13284;52.748;13.452;2023-07-24T06:16:56;20.80;99.90
25332;DHT22;13284;52.748;13.452;2023-07-24T06:19:21;21.00;99.90
25332;DHT22;13284;52.748;13.452;2023-07-24T06:21:47;21.00;99.90
25332;DHT22;13284;52.748;13.452;2023-07-24T06:24:19;21.00;99.90
25332;DHT22;13284;52.748;13.452;2023-07-24T06:26:44;21.00;99.90
25332;DHT22;13284;52.748;13.452;2023-07-24T06:29:10;21.10;99.90
25332;DHT22;13284;52.748;13.452;2023-07-24T06:31:35;21.10;99.90
25332;DHT22;13284;52.748;13.452;2023-07-24T06:34:01;21.00;99.90
25332;DHT22;13284;52.748;13.452;2023-07-24T06:36:26;21.10;99.90
25332;DHT22;13284;52.748;13.452;2023-07-24T06:38:51;21.10;99.90
25332;DHT22;13284;52.748;13.452;2023-07-24T06:41:17;21.20;99.90
25332;DHT22;13284;52.748;13.452;2023-07-24T06:43:45;21.20;99.90
25332;DHT22;13284;52.748;13.452;2023-07-24T06:46:11;21.10;99.90
25332;DHT22;13284;52.748;13.452;2023-07-24T06:48:36;21.10;99.90
25332;DHT22;13284;52.748;13.452;2023-07-24T06:51:02;21.10;99.90
25332;DHT22;13284;52.748;13.452;2023-07-24T06:53:27;21.20;99.90
25332;DHT22;13284;52.748;13.452;2023-07-24T06:55:53;21.10;99.90
25332;DHT22;13284;52.748;13.452;2023-07-24T06:58:18;21.20;99.90
25332;DHT22;13284;52.748;13.452;2023-07-24T07:00:44;21.30;99.90
25332;DHT22;13284;52.748;13.452;2023-07-24T07:03:12;21.40;99.90
25332;DHT22;13284;52.748;13.452;2023-07-24T07:05:38;21.50;99.90
25332;DHT22;13284;52.748;13.452;2023-07-24T07:08:03;21.50;99.90
25332;DHT22;13284;52.748;13.452;2023-07-24T07:10:31;21.50;99.90
25332;DHT22;13284;52.748;13.452;2023-07-24T07:12:56;21.50;99.90
25332;DHT22;13284;52.748;13.452;2023-07-24T07:15:22;21.70;99.90
25332;DHT22;13284;52.748;13.452;2023-07-24T07:17:47;21.80;99.90
25332;DHT22;13284;52.748;13.452;2023-07-24T07:20:13;21.90;99.90
25332;DHT22;13284;52.748;13.452;2023-07-24T07:22:41;22.10;99.90
25332;DHT22;13284;52.748;13.452;2023-07-24T07:25:07;22.10;99.90
25332;DHT22;13284;52.748;13.452;2023-07-24T07:27:32;22.20;99.90
25332;DHT22;13284;52.748;13.452;2023-07-24T07:29:58;22.30;99.90
25332;DHT22;13284;52.748;13.452;2023-07-24T07:32:23;22.20;99.90
25332;DHT22;13284;52.748;13.452;2023-07-24T07:34:50;22.40;99.90
25332;DHT22;13284;52.748;13.452;2023-07-24T07:37:15;22.40;99.90
25332;DHT22;13284;52.748;13.452;2023-07-24T07:39:41;22.50;99.90
25332;DHT22;13284;52.748;13.452;2023-07-24T07:42:06;22.40;99.90
25332;DHT22;13284;52.748;13.452;2023-07-24T07:44:32;22.50;99.90
25332;DHT22;13284;52.748;13.452;2023-07-24T07:46:57;22.60;99.90
25332;DHT22;13284;52.748;13.452;2023-07-24T07:49:23;22.70;99.90
25332;DHT22;13284;52.748;13.452;2023-07-24T07:51:48;22.80;99.90
25332;DHT22;13284;52.748;13.452;2023-07-24T07:54:14;22.80;99.90
25332;DHT22;13284;52.748;13.452;2023-07-24T07:56:40;22.90;99.90
25332;DHT22;13284;52.748;13.452;2023-07-24T07:59:06;23.00;99.90
25332;DHT22;13284;52.748;13.452;2023-07-24T08:01:33;23.20;99.90
25332;DHT22;13284;52.748;13.452;2023-07-24T08:03:58;23.30;99.90
25332;DHT22;13284;52.748;13.452;2023-07-24T08:06:24;23.40;99.90
25332;DHT22;13284;52.748;13.452;2023-07-24T08:08:50;23.70;99.90
25332;DHT22;13284;52.748;13.452;2023-07-24T08:11:15;24.00;99.90
25332;DHT22;13284;52.748;13.452;2023-07-24T08:13:41;24.20;99.90
25332;DHT22;13284;52.748;13.452;2023-07-24T08:16:13;24.40;99.90
25332;DHT22;13284;52.748;13.452;2023-07-24T08:18:44;24.50;99.90
25332;DHT22;13284;52.748;13.452;2023-07-24T08:21:10;24.50;99.90
25332;DHT22;13284;52.748;13.452;2023-07-24T08:23:35;24.60;99.90
25332;DHT22;13284;52.748;13.452;2023-07-24T08:26:01;24.80;99.90
25332;DHT22;13284;52.748;13.452;2023-07-24T08:28:27;24.60;99.90
25332;DHT22;13284;52.748;13.452;2023-07-24T08:30:57;24.50;99.90
25332;DHT22;13284;52.748;13.452;2023-07-24T08:33:23;24.70;99.90
25332;DHT22;13284;52.748;13.452;2023-07-24T08:36:00;24.90;99.90
25332;DHT22;13284;52.748;13.452;2023-07-24T08:38:27;25.10;99.90
25332;DHT22;13284;52.748;13.452;2023-07-24T08:43:32;24.90;99.90
25332;DHT22;13284;52.748;13.452;2023-07-24T08:46:00;24.80;99.90
25332;DHT22;13284;52.748;13.452;2023-07-24T08:48:30;24.90;99.90
25332;DHT22;13284;52.748;13.452;2023-07-24T08:50:59;25.10;99.90
25332;DHT22;13284;52.748;13.452;2023-07-24T08:53:25;24.90;99.90
25332;DHT22;13284;52.748;13.452;2023-07-24T08:55:52;24.80;99.90
25332;DHT22;13284;52.748;13.452;2023-07-24T08:58:17;24.60;99.90
25332;DHT22;13284;52.748;13.452;2023-07-24T09:00:43;24.70;99.90
25332;DHT22;13284;52.748;13.452;2023-07-24T09:03:09;25.20;99.90
25332;DHT22;13284;52.748;13.452;2023-07-24T09:05:34;25.30;99.90
25332;DHT22;13284;52.748;13.452;2023-07-24T09:08:00;25.90;99.90
25332;DHT22;13284;52.748;13.452;2023-07-24T09:10:26;25.80;99.90
25332;DHT22;13284;52.748;13.452;2023-07-24T09:12:52;25.70;99.90
25332;DHT22;13284;52.748;13.452;2023-07-24T09:15:17;25.70;99.90
25332;DHT22;13284;52.748;13.452;2023-07-24T09:17:54;25.60;99.90
25332;DHT22;13284;52.748;13.452;2023-07-24T09:20:20;26.00;99.90
25332;DHT22;13284;52.748;13.452;2023-07-24T09:22:52;26.00;99.90
25332;DHT22;13284;52.748;13.452;2023-07-24T09:25:18;26.20;99.90
25332;DHT22;13284;52.748;13.452;2023-07-24T09:27:54;26.40;99.90
25332;DHT22;13284;52.748;13.452;2023-07-24T09:30:19;26.70;99.90
25332;DHT22;13284;52.748;13.452;2023-07-24T09:32:55;27.10;99.90
25332;DHT22;13284;52.748;13.452;2023-07-24T09:35:21;26.70;99.90
25332;DHT22;13284;52.748;13.452;2023-07-24T09:38:07;26.80;99.90
25332;DHT22;13284;52.748;13.452;2023-07-24T09:40:44;27.60;99.90
25332;DHT22;13284;52.748;13.452;2023-07-24T09:43:24;27.30;99.90
25332;DHT22;13284;52.748;13.452;2023-07-24T09:45:51;28.00;99.90
25332;DHT22;13284;52.748;13.452;2023-07-24T09:48:18;27.80;99.90
25332;DHT22;13284;52.748;13.452;2023-07-24T09:50:48;27.10;99.90
25332;DHT22;13284;52.748;13.452;2023-07-24T09:53:28;27.40;99.90
25332;DHT22;13284;52.748;13.452;2023-07-24T09:55:58;27.10;99.90
25332;DHT22;13284;52.748;13.452;2023-07-24T09:58:25;26.90;99.90
25332;DHT22;13284;52.748;13.452;2023-07-24T10:00:52;26.60;99.90
25332;DHT22;13284;52.748;13.452;2023-07-24T10:03:18;26.70;99.90
25332;DHT22;13284;52.748;13.452;2023-07-24T10:05:46;26.40;99.90
25332;DHT22;13284;52.748;13.452;2023-07-24T10:08:12;26.30;99.90
25332;DHT22;13284;52.748;13.452;2023-07-24T10:10:42;26.10;99.90
25332;DHT22;13284;52.748;13.452;2023-07-24T10:13:11;26.10;99.90
25332;DHT22;13284;52.748;13.452;2023-07-24T10:15:41;26.00;99.90
25332;DHT22;13284;52.748;13.452;2023-07-24T10:18:08;27.10;99.90
25332;DHT22;13284;52.748;13.452;2023-07-24T10:20:39;27.70;99.90
25332;DHT22;13284;52.748;13.452;2023-07-24T10:23:08;28.30;99.90
25332;DHT22;13284;52.748;13.452;2023-07-24T10:25:35;28.80;99.90
25332;DHT22;13284;52.748;13.452;2023-07-24T10:28:09;29.30;99.90
25332;DHT22;13284;52.748;13.452;2023-07-24T10:30:40;29.90;99.90
25332;DHT22;13284;52.748;13.452;2023-07-24T10:33:18;29.60;99.90
25332;DHT22;13284;52.748;13.452;2023-07-24T10:35:46;29.60;99.90
25332;DHT22;13284;52.748;13.452;2023-07-24T10:38:14;29.70;99.90
25332;DHT22;13284;52.748;13.452;2023-07-24T10:40:40;29.90;99.90
25332;DHT22;13284;52.748;13.452;2023-07-24T10:43:07;30.10;99.90
25332;DHT22;13284;52.748;13.452;2023-07-24T10:45:46;29.30;99.90
25332;DHT22;13284;52.748;13.452;2023-07-24T10:48:12;29.80;99.90
25332;DHT22;13284;52.748;13.452;2023-07-24T10:50:44;29.90;99.90
25332;DHT22;13284;52.748;13.452;2023-07-24T10:53:13;29.40;99.90
25332;DHT22;13284;52.748;13.452;2023-07-24T10:55:39;28.30;99.90
25332;DHT22;13284;52.748;13.452;2023-07-24T10:58:05;28.10;99.90
25332;DHT22;13284;52.748;13.452;2023-07-24T11:00:31;28.10;99.90
25332;DHT22;13284;52.748;13.452;2023-07-24T11:02:57;27.70;99.90
25332;DHT22;13284;52.748;13.452;2023-07-24T11:05:23;27.40;99.90
25332;DHT22;13284;52.748;13.452;2023-07-24T11:07:49;27.20;99.90
25332;DHT22;13284;52.748;13.452;2023-07-24T11:10:18;27.80;99.90
25332;DHT22;13284;52.748;13.452;2023-07-24T11:12:44;27.70;99.90
25332;DHT22;13284;52.748;13.452;2023-07-24T11:15:11;27.50;99.90
25332;DHT22;13284;52.748;13.452;2023-07-24T11:17:38;27.60;99.90
25332;DHT22;13284;52.748;13.452;2023-07-24T11:20:10;27.90;99.90
25332;DHT22;13284;52.748;13.452;2023-07-24T11:22:39;27.60;99.90
25332;DHT22;13284;52.748;13.452;2023-07-24T11:25:06;27.50;99.90
25332;DHT22;13284;52.748;13.452;2023-07-24T11:27:32;27.10;99.90
25332;DHT22;13284;52.748;13.452;2023-07-24T11:29:58;26.70;99.90
25332;DHT22;13284;52.748;13.452;2023-07-24T11:32:24;26.50;99.90
25332;DHT22;13284;52.748;13.452;2023-07-24T11:34:51;26.30;99.90
25332;DHT22;13284;52.748;13.452;2023-07-24T11:37:17;26.10;99.90
25332;DHT22;13284;52.748;13.452;2023-07-24T11:42:24;25.90;99.90
25332;DHT22;13284;52.748;13.452;2023-07-24T11:44:50;25.90;99.90
25332;DHT22;13284;52.748;13.452;2023-07-24T11:47:17;25.80;99.90
25332;DHT22;13284;52.748;13.452;2023-07-24T11:49:59;25.80;99.90
25332;DHT22;13284;52.748;13.452;2023-07-24T11:52:25;25.80;99.90
25332;DHT22;13284;52.748;13.452;2023-07-24T11:54:57;25.80;99.90
25332;DHT22;13284;52.748;13.452;2023-07-24T11:57:30;25.70;99.90
25332;DHT22;13284;52.748;13.452;2023-07-24T11:59:56;25.70;99.90
25332;DHT22;13284;52.748;13.452;2023-07-24T12:02:26;25.70;99.90
25332;DHT22;13284;52.748;13.452;2023-07-24T12:04:57;25.70;99.90
25332;DHT22;13284;52.748;13.452;2023-07-24T12:07:32;25.60;99.90
25332;DHT22;13284;52.748;13.452;2023-07-24T12:09:58;25.40;99.90
25332;DHT22;13284;52.748;13.452;2023-07-24T12:12:25;24.70;99.90
25332;DHT22;13284;52.748;13.452;2023-07-24T12:14:53;23.70;99.90
25332;DHT22;13284;52.748;13.452;2023-07-24T12:17:19;22.80;99.90
25332;DHT22;13284;52.748;13.452;2023-07-24T12:19:45;22.20;99.90
25332;DHT22;13284;52.748;13.452;2023-07-24T12:22:11;21.60;99.90
25332;DHT22;13284;52.748;13.452;2023-07-24T12:24:36;21.30;99.90
25332;DHT22;13284;52.748;13.452;2023-07-24T12:27:02;21.10;99.90
25332;DHT22;13284;52.748;13.452;2023-07-24T12:29:27;21.00;99.90
25332;DHT22;13284;52.748;13.452;2023-07-24T12:31:53;20.90;99.90
25332;DHT22;13284;52.748;13.452;2023-07-24T12:34:18;20.70;99.90
25332;DHT22;13284;52.748;13.452;2023-07-24T12:36:44;20.70;99.90
25332;DHT22;13284;52.748;13.452;2023-07-24T12:39:09;20.90;99.90
25332;DHT22;13284;52.748;13.452;2023-07-24T12:41:35;20.90;99.90
25332;DHT22;13284;52.748;13.452;2023-07-24T12:44:00;21.00;99.90
25332;DHT22;13284;52.748;13.452;2023-07-24T12:46:26;21.10;99.90
25332;DHT22;13284;52.748;13.452;2023-07-24T12:48:51;21.40;99.90
25332;DHT22;13284;52.748;13.452;2023-07-24T12:51:17;21.90;99.90
25332;DHT22;13284;52.748;13.452;2023-07-24T12:53:42;22.50;99.90
25332;DHT22;13284;52.748;13.452;2023-07-24T12:56:08;22.80;99.90
25332;DHT22;13284;52.748;13.452;2023-07-24T12:58:33;23.00;99.90
25332;DHT22;13284;52.748;13.452;2023-07-24T13:00:59;23.20;99.90
25332;DHT22;13284;52.748;13.452;2023-07-24T13:03:24;23.20;99.90
25332;DHT22;13284;52.748;13.452;2023-07-24T13:05:49;23.20;99.90
25332;DHT22;13284;52.748;13.452;2023-07-24T13:08:15;23.60;99.90
25332;DHT22;13284;52.748;13.452;2023-07-24T13:10:40;23.50;99.90
25332;DHT22;13284;52.748;13.452;2023-07-24T13:13:06;23.90;99.90
25332;DHT22;13284;52.748;13.452;2023-07-24T13:15:31;23.80;99.90
25332;DHT22;13284;52.748;13.452;2023-07-24T13:17:57;24.20;99.90
25332;DHT22;13284;52.748;13.452;2023-07-24T13:20:27;24.10;99.90
25332;DHT22;13284;52.748;13.452;2023-07-24T13:22:53;24.10;99.90
25332;DHT22;13284;52.748;13.452;2023-07-24T13:25:18;24.40;99.90
25332;DHT22;13284;52.748;13.452;2023-07-24T13:27:44;24.50;99.90
25332;DHT22;13284;52.748;13.452;2023-07-24T13:30:10;24.80;99.90
25332;DHT22;13284;52.748;13.452;2023-07-24T13:32:36;25.10;99.90
25332;DHT22;13284;52.748;13.452;2023-07-24T13:35:01;25.20;99.90
25332;DHT22;13284;52.748;13.452;2023-07-24T13:37:29;25.00;99.90
25332;DHT22;13284;52.748;13.452;2023-07-24T13:39:55;24.90;99.90
25332;DHT22;13284;52.748;13.452;2023-07-24T13:42:20;24.90;99.90
25332;DHT22;13284;52.748;13.452;2023-07-24T13:44:46;25.00;99.90
25332;DHT22;13284;52.748;13.452;2023-07-24T13:47:16;24.90;99.90
25332;DHT22;13284;52.748;13.452;2023-07-24T13:49:41;25.00;99.90
25332;DHT22;13284;52.748;13.452;2023-07-24T13:52:07;25.00;99.90
25332;DHT22;13284;52.748;13.452;2023-07-24T13:54:32;25.10;99.90
25332;DHT22;13284;52.748;13.452;2023-07-24T13:56:58;24.90;99.90
25332;DHT22;13284;52.748;13.452;2023-07-24T13:59:23;25.00;99.90
25332;DHT22;13284;52.748;13.452;2023-07-24T14:01:49;25.10;99.90
25332;DHT22;13284;52.748;13.452;2023-07-24T14:04:14;25.20;99.90
25332;DHT22;13284;52.748;13.452;2023-07-24T14:06:40;25.00;99.90
25332;DHT22;13284;52.748;13.452;2023-07-24T14:09:06;25.10;99.90
25332;DHT22;13284;52.748;13.452;2023-07-24T14:11:32;25.10;99.90
25332;DHT22;13284;52.748;13.452;2023-07-24T14:13:57;25.30;99.90
25332;DHT22;13284;52.748;13.452;2023-07-24T14:16:23;25.00;99.90
25332;DHT22;13284;52.748;13.452;2023-07-24T14:18:48;25.30;99.90
25332;DHT22;13284;52.748;13.452;2023-07-24T14:21:14;25.40;99.90
25332;DHT22;13284;52.748;13.452;2023-07-24T14:23:39;25.50;99.90
25332;DHT22;13284;52.748;13.452;2023-07-24T14:26:05;25.40;99.90
25332;DHT22;13284;52.748;13.452;2023-07-24T14:28:30;25.70;99.90
25332;DHT22;13284;52.748;13.452;2023-07-24T14:30:56;26.00;99.90
25332;DHT22;13284;52.748;13.452;2023-07-24T14:33:21;26.10;99.90
25332;DHT22;13284;52.748;13.452;2023-07-24T14:35:47;26.00;99.90
25332;DHT22;13284;52.748;13.452;2023-07-24T14:38:13;25.80;99.90
25332;DHT22;13284;52.748;13.452;2023-07-24T14:40:38;25.50;99.90
25332;DHT22;13284;52.748;13.452;2023-07-24T14:43:05;25.80;99.90
25332;DHT22;13284;52.748;13.452;2023-07-24T14:45:31;25.70;99.90
25332;DHT22;13284;52.748;13.452;2023-07-24T14:47:59;25.90;99.90
25332;DHT22;13284;52.748;13.452;2023-07-24T14:50:27;26.10;99.90
25332;DHT22;13284;52.748;13.452;2023-07-24T14:52:54;26.20;99.90
25332;DHT22;13284;52.748;13.452;2023-07-24T14:55:19;26.00;99.90
25332;DHT22;13284;52.748;13.452;2023-07-24T14:57:45;26.10;99.90
25332;DHT22;13284;52.748;13.452;2023-07-24T15:00:13;26.00;99.90
25332;DHT22;13284;52.748;13.452;2023-07-24T15:02:39;25.90;99.90
25332;DHT22;13284;52.748;13.452;2023-07-24T15:05:04;25.60;99.90
25332;DHT22;13284;52.748;13.452;2023-07-24T15:07:30;25.50;99.90
25332;DHT22;13284;52.748;13.452;2023-07-24T15:09:55;25.10;99.90
25332;DHT22;13284;52.748;13.452;2023-07-24T15:12:21;24.90;99.90
25332;DHT22;13284;52.748;13.452;2023-07-24T15:14:47;24.80;99.90
25332;DHT22;13284;52.748;13.452;2023-07-24T15:17:12;24.50;99.90
25332;DHT22;13284;52.748;13.452;2023-07-24T15:19:39;24.40;99.90
25332;DHT22;13284;52.748;13.452;2023-07-24T15:22:05;24.30;99.90
25332;DHT22;13284;52.748;13.452;2023-07-24T15:24:31;24.10;99.90